sensor_id;sensor_type;location;lat;lon;timestamp;temperature;humidity
2002;DHT22;1003;48.002;7.788;2023-02-28T00:01:23;0.10;99.90
2002;DHT22;1003;48.002;7.788;2023-02-28T00:03:51;0.10;99.90
2002;DHT22;1003;48.002;7.788;2023-02-28T00:06:18;0.10;99.90
2002;DHT22;1003;48.002;7.788;2023-02-28T00:08:46;0.10;99.90
2002;DHT22;1003;48.002;7.788;2023-02-28T00:11:14;0.10;99.90
2002;DHT22;1003;48.002;7.788;2023-02-28T00:13:44;0.20;99.90
2002;DHT22;1003;48.002;7.788;2023-02-28T00:16:15;0.00;99.90
2002;DHT22;1003;48.002;7.788;2023-02-28T00:18:44;-0.10;99.90
2002;DHT22;1003;48.002;7.788;2023-02-28T00:21:12;-0.20;99.90
2002;DHT22;1003;48.002;7.788;2023-02-28T00:23:40;-0.20;99.90
2002;DHT22;1003;48.002;7.788;2023-02-28T00:26:07;-0.20;99.90
2002;DHT22;1003;48.002;7.788;2023-02-28T00:28:34;-0.20;99.90
2002;DHT22;1003;48.002;7.788;2023-02-28T00:31:01;-0.30;99.90
2002;DHT22;1003;48.002;7.788;2023-02-28T00:33:30;-0.30;99.90
2002;DHT22;1003;48.002;7.788;2023-02-28T00:36:05;-0.20;99.90
2002;DHT22;1003;48.002;7.788;2023-02-28T00:38:34;-0.20;99.90
2002;DHT22;1003;48.002;7.788;2023-02-28T00:41:01;0.00;99.90
2002;DHT22;1003;48.002;7.788;2023-02-28T00:43:31;0.10;99.90
2002;DHT22;1003;48.002;7.788;2023-02-28T00:45:59;-0.10;99.90
2002;DHT22;1003;48.002;7.788;2023-02-28T00:48:26;-0.10;99.90
2002;DHT22;1003;48.002;7.788;2023-02-28T00:50:54;0.00;99.90
2002;DHT22;1003;48.002;7.788;2023-02-28T00:53:21;0.10;99.90
2002;DHT22;1003;48.002;7.788;2023-02-28T00:55:49;0.00;99.90
2002;DHT22;1003;48.002;7.788;2023-02-28T00:58:16;-0.10;99.90
2002;DHT22;1003;48.002;7.788;2023-02-28T01:00:43;0.20;99.90
2002;DHT22;1003;48.002;7.788;2023-02-28T01:03:15;0.10;99.90
2002;DHT22;1003;48.002;7.788;2023-02-28T01:05:43;0.10;99.90
2002;DHT22;1003;48.002;7.788;2023-02-28T01:08:12;0.00;99.90
2002;DHT22;1003;48.002;7.788;2023-02-28T01:10:40;0.00;99.90
2002;DHT22;1003;48.002;7.788;2023-02-28T01:13:07;0.10;99.90
2002;DHT22;1003;48.002;7.788;2023-02-28T01:15:34;0.00;99.90
2002;DHT22;1003;48.002;7.788;2023-02-28T01:18:02;0.10;99.90
2002;DHT22;1003;48.002;7.788;2023-02-28T01:20:29;0.20;99.90
2002;DHT22;1003;48.002;7.788;2023-02-28T01:22:56;0.30;99.90
2002;DHT22;1003;48.002;7.788;2023-02-28T01:25:24;0.20;99.90
2002;DHT22;1003;48.002;7.788;2023-02-28T01:27:51;0.30;99.90
2002;DHT22;1003;48.002;7.788;2023-02-28T01:30:18;0.10;99.90
2002;DHT22;1003;48.002;7.788;2023-02-28T01:32:45;0.00;99.90
2002;DHT22;1003;48.002;7.788;2023-02-28T01:35:12;0.10;99.90
2002;DHT22;1003;48.002;7.788;2023-02-28T01:37:40;0.20;99.90
2002;DHT22;1003;48.002;7.788;2023-02-28T01:40:09;0.30;99.90
2002;DHT22;1003;48.002;7.788;2023-02-28T01:42:39;0.40;99.90
2002;DHT22;1003;48.002;7.788;2023-02-28T01:45:18;0.30;99.90
2002;DHT22;1003;48.002;7.788;2023-02-28T01:47:51;0.10;99.90
2002;DHT22;1003;48.002;7.788;2023-02-28T01:50:22;0.00;99.90
2002;DHT22;1003;48.002;7.788;2023-02-28T01:52:54;0.10;99.90
2002;DHT22;1003;48.002;7.788;2023-02-28T01:55:26;0.20;99.90
2002;DHT22;1003;48.002;7.788;2023-02-28T01:57:59;0.20;99.90
2002;DHT22;1003;48.002;7.788;2023-02-28T02:00:29;0.20;99.90
2002;DHT22;1003;48.002;7.788;2023-02-28T02:03:00;0.00;99.90
2002;DHT22;1003;48.002;7.788;2023-02-28T02:05:32;-0.10;99.90
2002;DHT22;1003;48.002;7.788;2023-02-28T02:08:03;0.00;99.90
2002;DHT22;1003;48.002;7.788;2023-02-28T02:10:35;0.20;99.90
2002;DHT22;1003;48.002;7.788;2023-02-28T02:13:18;0.20;99.90
2002;DHT22;1003;48.002;7.788;2023-02-28T02:16:02;0.30;99.90
2002;DHT22;1003;48.002;7.788;2023-02-28T02:18:40;0.30;99.90
2002;DHT22;1003;48.002;7.788;2023-02-28T02:21:40;0.30;99.90
2002;DHT22;1003;48.002;7.788;2023-02-28T02:24:49;0.20;99.90
2002;DHT22;1003;48.002;7.788;2023-02-28T02:27:55;0.20;99.90
2002;DHT22;1003;48.002;7.788;2023-02-28T02:30:51;0.10;99.90
2002;DHT22;1003;48.002;7.788;2023-02-28T02:37:02;0.00;99.90
2002;DHT22;1003;48.002;7.788;2023-02-28T02:39:44;0.00;99.90
2002;DHT22;1003;48.002;7.788;2023-02-28T02:42:23;0.00;99.90
2002;DHT22;1003;48.002;7.788;2023-02-28T02:44:59;0.00;99.90
2002;DHT22;1003;48.002;7.788;2023-02-28T02:47:32;-0.10;99.90
2002;DHT22;1003;48.002;7.788;2023-02-28T02:50:06;-0.20;99.90
2002;DHT22;1003;48.002;7.788;2023-02-28T02:52:42;-0.10;99.90
2002;DHT22;1003;48.002;7.788;2023-02-28T02:55:13;-0.20;99.90
2002;DHT22;1003;48.002;7.788;2023-02-28T02:57:46;-0.20;99.90
2002;DHT22;1003;48.002;7.788;2023-02-28T03:00:19;-0.30;99.90
2002;DHT22;1003;48.002;7.788;2023-02-28T03:02:52;-0.20;99.90
2002;DHT22;1003;48.002;7.788;2023-02-28T03:05:26;-0.30;99.90
2002;DHT22;1003;48.002;7.788;2023-02-28T03:07:58;-0.30;99.90
2002;DHT22;1003;48.002;7.788;2023-02-28T03:10:36;-0.30;99.90
2002;DHT22;1003;48.002;7.788;2023-02-28T03:16:34;-0.20;99.90
2002;DHT22;1003;48.002;7.788;2023-02-28T03:19:31;-0.10;99.90
2002;DHT22;1003;48.002;7.788;2023-02-28T03:22:19;-0.30;99.90
2002;DHT22;1003;48.002;7.788;2023-02-28T03:25:05;-0.30;99.90
2002;DHT22;1003;48.002;7.788;2023-02-28T03:27:39;-0.40;99.90
2002;DHT22;1003;48.002;7.788;2023-02-28T03:30:15;-0.30;99.90
2002;DHT22;1003;48.002;7.788;2023-02-28T03:32:54;-0.30;99.90
2002;DHT22;1003;48.002;7.788;2023-02-28T03:35:27;-0.30;99.90
2002;DHT22;1003;48.002;7.788;2023-02-28T03:38:05;-0.20;99.90
2002;DHT22;1003;48.002;7.788;2023-02-28T03:40:41;-0.10;99.90
2002;DHT22;1003;48.002;7.788;2023-02-28T03:43:17;-0.20;99.90
2002;DHT22;1003;48.002;7.788;2023-02-28T03:45:49;-0.30;99.90
2002;DHT22;1003;48.002;7.788;2023-02-28T03:48:21;-0.50;99.90
2002;DHT22;1003;48.002;7.788;2023-02-28T03:50:54;-0.30;99.90
2002;DHT22;1003;48.002;7.788;2023-02-28T03:53:29;-0.30;99.90
2002;DHT22;1003;48.002;7.788;2023-02-28T03:56:03;-0.40;99.90
2002;DHT22;1003;48.002;7.788;2023-02-28T03:58:41;-0.50;99.90
2002;DHT22;1003;48.002;7.788;2023-02-28T04:01:18;-0.50;99.90
2002;DHT22;1003;48.002;7.788;2023-02-28T04:03:49;-0.40;99.90
2002;DHT22;1003;48.002;7.788;2023-02-28T04:06:19;-0.50;99.90
2002;DHT22;1003;48.002;7.788;2023-02-28T04:08:50;-0.60;99.90
2002;DHT22;1003;48.002;7.788;2023-02-28T04:11:21;-0.60;99.90
2002;DHT22;1003;48.002;7.788;2023-02-28T04:13:50;-0.60;99.90
2002;DHT22;1003;48.002;7.788;2023-02-28T04:16:17;-0.60;99.90
2002;DHT22;1003;48.002;7.788;2023-02-28T04:18:44;-0.70;99.90
2002;DHT22;1003;48.002;7.788;2023-02-28T04:21:12;-0.70;99.90
2002;DHT22;1003;48.002;7.788;2023-02-28T04:23:39;-0.70;99.90
2002;DHT22;1003;48.002;7.788;2023-02-28T04:26:07;-0.70;99.90
2002;DHT22;1003;48.002;7.788;2023-02-28T04:28:37;-0.70;99.90
2002;DHT22;1003;48.002;7.788;2023-02-28T04:31:05;-0.70;99.90
2002;DHT22;1003;48.002;7.788;2023-02-28T04:33:32;-0.50;99.90
2002;DHT22;1003;48.002;7.788;2023-02-28T04:36:00;-0.50;99.90
2002;DHT22;1003;48.002;7.788;2023-02-28T04:38:29;-0.50;99.90
2002;DHT22;1003;48.002;7.788;2023-02-28T04:40:59;-0.60;99.90
2002;DHT22;1003;48.002;7.788;2023-02-28T04:43:28;-0.70;99.90
2002;DHT22;1003;48.002;7.788;2023-02-28T04:45:57;-0.60;99.90
2002;DHT22;1003;48.002;7.788;2023-02-28T04:48:28;-0.50;99.90
2002;DHT22;1003;48.002;7.788;2023-02-28T04:51:00;-0.50;99.90
2002;DHT22;1003;48.002;7.788;2023-02-28T04:53:28;-0.50;99.90
2002;DHT22;1003;48.002;7.788;2023-02-28T04:55:56;-0.50;99.90
2002;DHT22;1003;48.002;7.788;2023-02-28T04:58:23;-0.40;99.90
2002;DHT22;1003;48.002;7.788;2023-02-28T05:00:53;-0.50;99.90
2002;DHT22;1003;48.002;7.788;2023-02-28T05:03:20;-0.50;99.90
2002;DHT22;1003;48.002;7.788;2023-02-28T05:05:48;-0.40;99.90
2002;DHT22;1003;48.002;7.788;2023-02-28T05:08:15;-0.50;99.90
2002;DHT22;1003;48.002;7.788;2023-02-28T05:10:42;-0.50;99.90
2002;DHT22;1003;48.002;7.788;2023-02-28T05:13:10;-0.60;99.90
2002;DHT22;1003;48.002;7.788;2023-02-28T05:15:38;-0.50;99.90
2002;DHT22;1003;48.002;7.788;2023-02-28T05:18:08;-0.50;99.90
2002;DHT22;1003;48.002;7.788;2023-02-28T05:20:35;-0.40;99.90
2002;DHT22;1003;48.002;7.788;2023-02-28T05:23:03;-0.50;99.90
2002;DHT22;1003;48.002;7.788;2023-02-28T05:25:30;-0.30;99.90
2002;DHT22;1003;48.002;7.788;2023-02-28T05:27:57;-0.40;99.90
2002;DHT22;1003;48.002;7.788;2023-02-28T05:30:24;-0.50;99.90
2002;DHT22;1003;48.002;7.788;2023-02-28T05:32:51;-0.40;99.90
2002;DHT22;1003;48.002;7.788;2023-02-28T05:35:20;-0.30;99.90
2002;DHT22;1003;48.002;7.788;2023-02-28T05:37:47;-0.40;99.90
2002;DHT22;1003;48.002;7.788;2023-02-28T05:40:14;-0.30;99.90
2002;DHT22;1003;48.002;7.788;2023-02-28T05:42:42;-0.30;99.90
2002;DHT22;1003;48.002;7.788;2023-02-28T05:45:10;-0.30;99.90
2002;DHT22;1003;48.002;7.788;2023-02-28T05:47:37;-0.40;99.90
2002;DHT22;1003;48.002;7.788;2023-02-28T05:50:05;-0.50;99.90
2002;DHT22;1003;48.002;7.788;2023-02-28T05:52:36;-0.50;99.90
2002;DHT22;1003;48.002;7.788;2023-02-28T05:55:04;-0.60;99.90
2002;DHT22;1003;48.002;7.788;2023-02-28T05:57:32;-0.50;99.90
2002;DHT22;1003;48.002;7.788;2023-02-28T05:59:59;-0.60;99.90
2002;DHT22;1003;48.002;7.788;2023-02-28T06:02:26;-0.70;99.90
2002;DHT22;1003;48.002;7.788;2023-02-28T06:04:53;-0.70;99.90
2002;DHT22;1003;48.002;7.788;2023-02-28T06:07:20;-0.70;99.90
2002;DHT22;1003;48.002;7.788;2023-02-28T06:09:50;-0.80;99.90
2002;DHT22;1003;48.002;7.788;2023-02-28T06:12:17;-0.80;99.90
2002;DHT22;1003;48.002;7.788;2023-02-28T06:14:44;-0.80;99.90
2002;DHT22;1003;48.002;7.788;2023-02-28T06:17:11;-0.90;99.90
2002;DHT22;1003;48.002;7.788;2023-02-28T06:19:38;-0.80;99.90
2002;DHT22;1003;48.002;7.788;2023-02-28T06:22:07;-0.70;99.90
2002;DHT22;1003;48.002;7.788;2023-02-28T06:24:34;-0.70;99.90
2002;DHT22;1003;48.002;7.788;2023-02-28T06:27:02;-0.80;99.90
2002;DHT22;1003;48.002;7.788;2023-02-28T06:29:30;-0.90;99.90
2002;DHT22;1003;48.002;7.788;2023-02-28T06:31:59;-0.90;99.90
2002;DHT22;1003;48.002;7.788;2023-02-28T06:34:26;-1.00;99.90
2002;DHT22;1003;48.002;7.788;2023-02-28T06:36:53;-1.00;99.90
2002;DHT22;1003;48.002;7.788;2023-02-28T06:39:20;-1.00;99.90
2002;DHT22;1003;48.002;7.788;2023-02-28T06:41:47;-1.00;99.90
2002;DHT22;1003;48.002;7.788;2023-02-28T06:44:18;-1.00;99.90
2002;DHT22;1003;48.002;7.788;2023-02-28T06:46:45;-1.00;99.90
2002;DHT22;1003;48.002;7.788;2023-02-28T06:49:13;-1.10;99.90
2002;DHT22;1003;48.002;7.788;2023-02-28T06:51:42;-1.00;99.90
2002;DHT22;1003;48.002;7.788;2023-02-28T06:54:11;-0.90;99.90
2002;DHT22;1003;48.002;7.788;2023-02-28T06:56:39;-0.90;99.90
2002;DHT22;1003;48.002;7.788;2023-02-28T06:59:06;-0.80;99.90
2002;DHT22;1003;48.002;7.788;2023-02-28T07:01:35;-0.80;99.90
2002;DHT22;1003;48.002;7.788;2023-02-28T07:04:02;-0.80;99.90
2002;DHT22;1003;48.002;7.788;2023-02-28T07:06:32;-0.80;99.90
2002;DHT22;1003;48.002;7.788;2023-02-28T07:08:59;-0.70;99.90
2002;DHT22;1003;48.002;7.788;2023-02-28T07:11:27;-0.60;99.90
2002;DHT22;1003;48.002;7.788;2023-02-28T07:13:55;-0.60;99.90
2002;DHT22;1003;48.002;7.788;2023-02-28T07:16:24;-0.40;99.90
2002;DHT22;1003;48.002;7.788;2023-02-28T07:18:54;-0.40;99.90
2002;DHT22;1003;48.002;7.788;2023-02-28T07:21:21;-0.50;99.90
2002;DHT22;1003;48.002;7.788;2023-02-28T07:23:48;-0.20;99.90
2002;DHT22;1003;48.002;7.788;2023-02-28T07:26:17;-0.20;99.90
2002;DHT22;1003;48.002;7.788;2023-02-28T07:28:47;-0.30;99.90
2002;DHT22;1003;48.002;7.788;2023-02-28T07:31:16;-0.30;99.90
2002;DHT22;1003;48.002;7.788;2023-02-28T07:33:44;-0.20;99.90
2002;DHT22;1003;48.002;7.788;2023-02-28T07:36:15;-0.20;99.90
2002;DHT22;1003;48.002;7.788;2023-02-28T07:38:44;-0.10;99.90
2002;DHT22;1003;48.002;7.788;2023-02-28T07:41:13;0.00;99.90
2002;DHT22;1003;48.002;7.788;2023-02-28T07:43:41;-0.10;99.90
2002;DHT22;1003;48.002;7.788;2023-02-28T07:46:09;-0.10;99.90
2002;DHT22;1003;48.002;7.788;2023-02-28T07:48:37;0.10;99.90
2002;DHT22;1003;48.002;7.788;2023-02-28T07:51:05;0.20;99.90
2002;DHT22;1003;48.002;7.788;2023-02-28T07:53:33;0.20;99.90
2002;DHT22;1003;48.002;7.788;2023-02-28T07:56:02;0.20;99.90
2002;DHT22;1003;48.002;7.788;2023-02-28T07:58:29;0.50;99.90
2002;DHT22;1003;48.002;7.788;2023-02-28T08:00:57;0.70;99.90
2002;DHT22;1003;48.002;7.788;2023-02-28T08:03:31;0.60;99.90
2002;DHT22;1003;48.002;7.788;2023-02-28T08:05:58;0.50;99.90
2002;DHT22;1003;48.002;7.788;2023-02-28T08:08:25;0.60;99.90
2002;DHT22;1003;48.002;7.788;2023-02-28T08:10:58;0.90;99.90
2002;DHT22;1003;48.002;7.788;2023-02-28T08:13:26;1.00;99.90
2002;DHT22;1003;48.002;7.788;2023-02-28T08:15:53;1.10;99.90
2002;DHT22;1003;48.002;7.788;2023-02-28T08:18:21;1.40;99.90
2002;DHT22;1003;48.002;7.788;2023-02-28T08:20:49;1.50;99.90
2002;DHT22;1003;48.002;7.788;2023-02-28T08:23:16;1.50;99.90
2002;DHT22;1003;48.002;7.788;2023-02-28T08:25:43;1.60;99.90
2002;DHT22;1003;48.002;7.788;2023-02-28T08:28:11;1.50;99.90
2002;DHT22;1003;48.002;7.788;2023-02-28T08:30:38;1.60;99.90
2002;DHT22;1003;48.002;7.788;2023-02-28T08:33:06;1.40;99.90
2002;DHT22;1003;48.002;7.788;2023-02-28T08:35:36;1.40;99.90
2002;DHT22;1003;48.002;7.788;2023-02-28T08:38:03;1.40;99.90
2002;DHT22;1003;48.002;7.788;2023-02-28T08:40:30;1.30;99.90
2002;DHT22;1003;48.002;7.788;2023-02-28T08:42:57;1.20;99.90
2002;DHT22;1003;48.002;7.788;2023-02-28T08:45:26;1.30;99.90
2002;DHT22;1003;48.002;7.788;2023-02-28T08:47:54;1.40;99.90
2002;DHT22;1003;48.002;7.788;2023-02-28T08:50:21;1.60;99.90
2002;DHT22;1003;48.002;7.788;2023-02-28T08:52:48;1.60;99.90
2002;DHT22;1003;48.002;7.788;2023-02-28T08:55:15;1.50;99.90
2002;DHT22;1003;48.002;7.788;2023-02-28T08:57:42;1.80;99.90
2002;DHT22;1003;48.002;7.788;2023-02-28T09:00:11;1.70;99.90
2002;DHT22;1003;48.002;7.788;2023-02-28T09:02:41;1.70;99.90
2002;DHT22;1003;48.002;7.788;2023-02-28T09:05:09;1.90;99.90
2002;DHT22;1003;48.002;7.788;2023-02-28T09:07:36;2.10;99.90
2002;DHT22;1003;48.002;7.788;2023-02-28T09:10:04;2.20;99.90
2002;DHT22;1003;48.002;7.788;2023-02-28T09:12:33;2.10;99.90
2002;DHT22;1003;48.002;7.788;2023-02-28T09:15:01;2.30;99.90
2002;DHT22;1003;48.002;7.788;2023-02-28T09:17:28;2.50;99.90
2002;DHT22;1003;48.002;7.788;2023-02-28T09:19:57;2.50;99.90
2002;DHT22;1003;48.002;7.788;2023-02-28T09:22:24;2.90;99.90
2002;DHT22;1003;48.002;7.788;2023-02-28T09:24:51;3.00;99.90
2002;DHT22;1003;48.002;7.788;2023-02-28T09:27:18;3.30;99.90
2002;DHT22;1003;48.002;7.788;2023-02-28T09:29:45;3.10;99.90
2002;DHT22;1003;48.002;7.788;2023-02-28T09:32:12;3.30;99.90
2002;DHT22;1003;48.002;7.788;2023-02-28T09:34:39;3.30;99.90
2002;DHT22;1003;48.002;7.788;2023-02-28T09:37:08;3.20;99.90
2002;DHT22;1003;48.002;7.788;2023-02-28T09:39:35;3.60;99.90
2002;DHT22;1003;48.002;7.788;2023-02-28T09:42:03;3.90;99.90
2002;DHT22;1003;48.002;7.788;2023-02-28T09:44:36;3.90;99.90
2002;DHT22;1003;48.002;7.788;2023-02-28T09:47:10;3.60;99.90
2002;DHT22;1003;48.002;7.788;2023-02-28T09:49:46;3.50;99.90
2002;DHT22;1003;48.002;7.788;2023-02-28T09:52:20;4.10;99.90
2002;DHT22;1003;48.002;7.788;2023-02-28T09:54:52;4.10;99.90
2002;DHT22;1003;48.002;7.788;2023-02-28T09:57:25;3.80;99.90
2002;DHT22;1003;48.002;7.788;2023-02-28T10:00:10;4.00;99.90
2002;DHT22;1003;48.002;7.788;2023-02-28T10:03:04;3.70;99.90
2002;DHT22;1003;48.002;7.788;2023-02-28T10:05:48;3.60;99.90
2002;DHT22;1003;48.002;7.788;2023-02-28T10:08:23;3.90;99.90
2002;DHT22;1003;48.002;7.788;2023-02-28T10:10:56;4.10;99.90
2002;DHT22;1003;48.002;7.788;2023-02-28T10:13:28;4.10;99.90
2002;DHT22;1003;48.002;7.788;2023-02-28T10:16:03;3.80;99.90
2002;DHT22;1003;48.002;7.788;2023-02-28T10:18:41;3.60;99.90
2002;DHT22;1003;48.002;7.788;2023-02-28T10:21:20;3.70;99.90
2002;DHT22;1003;48.002;7.788;2023-02-28T10:24:01;4.20;99.90
2002;DHT22;1003;48.002;7.788;2023-02-28T10:26:32;4.70;99.90
2002;DHT22;1003;48.002;7.788;2023-02-28T10:29:00;4.90;99.90
2002;DHT22;1003;48.002;7.788;2023-02-28T10:31:28;4.90;99.90
2002;DHT22;1003;48.002;7.788;2023-02-28T10:33:56;4.90;99.90
2002;DHT22;1003;48.002;7.788;2023-02-28T10:36:23;4.80;99.90
2002;DHT22;1003;48.002;7.788;2023-02-28T10:38:50;4.80;99.90
2002;DHT22;1003;48.002;7.788;2023-02-28T10:41:27;4.80;99.90
2002;DHT22;1003;48.002;7.788;2023-02-28T10:44:17;5.10;99.90
2002;DHT22;1003;48.002;7.788;2023-02-28T10:46:46;5.00;99.90
2002;DHT22;1003;48.002;7.788;2023-02-28T10:49:19;5.20;99.90
2002;DHT22;1003;48.002;7.788;2023-02-28T10:51:52;4.90;99.90
2002;DHT22;1003;48.002;7.788;2023-02-28T10:54:24;4.60;99.90
2002;DHT22;1003;48.002;7.788;2023-02-28T10:57:08;4.40;99.90
2002;DHT22;1003;48.002;7.788;2023-02-28T10:59:41;4.50;99.90
2002;DHT22;1003;48.002;7.788;2023-02-28T11:02:31;4.40;99.90
2002;DHT22;1003;48.002;7.788;2023-02-28T11:05:00;4.80;99.90
2002;DHT22;1003;48.002;7.788;2023-02-28T11:07:27;4.50;99.90
2002;DHT22;1003;48.002;7.788;2023-02-28T11:09:57;4.60;99.90
2002;DHT22;1003;48.002;7.788;2023-02-28T11:12:31;4.60;99.90
2002;DHT22;1003;48.002;7.788;2023-02-28T11:15:05;4.20;99.90
2002;DHT22;1003;48.002;7.788;2023-02-28T11:17:53;4.10;99.90
2002;DHT22;1003;48.002;7.788;2023-02-28T11:20:23;4.10;99.90
2002;DHT22;1003;48.002;7.788;2023-02-28T11:22:53;4.00;99.90
2002;DHT22;1003;48.002;7.788;2023-02-28T11:25:25;4.10;99.90
2002;DHT22;1003;48.002;7.788;2023-02-28T11:27:57;4.10;99.90
2002;DHT22;1003;48.002;7.788;2023-02-28T11:30:35;4.10;99.90
2002;DHT22;1003;48.002;7.788;2023-02-28T11:33:26;4.30;99.90
2002;DHT22;1003;48.002;7.788;2023-02-28T11:35:58;4.50;99.90
2002;DHT22;1003;48.002;7.788;2023-02-28T11:38:27;4.40;99.90
2002;DHT22;1003;48.002;7.788;2023-02-28T11:41:22;4.20;99.90
2002;DHT22;1003;48.002;7.788;2023-02-28T11:44:09;4.90;99.90
2002;DHT22;1003;48.002;7.788;2023-02-28T11:46:51;4.90;99.90
2002;DHT22;1003;48.002;7.788;2023-02-28T11:49:29;4.80;99.90
2002;DHT22;1003;48.002;7.788;2023-02-28T11:52:09;4.80;99.90
2002;DHT22;1003;48.002;7.788;2023-02-28T11:55:05;4.80;99.90
2002;DHT22;1003;48.002;7.788;2023-02-28T12:01:12;4.80;99.90
2002;DHT22;1003;48.002;7.788;2023-02-28T12:03:58;5.10;99.90
2002;DHT22;1003;48.002;7.788;2023-02-28T12:06:34;5.20;99.90
2002;DHT22;1003;48.002;7.788;2023-02-28T12:09:28;5.20;99.90
2002;DHT22;1003;48.002;7.788;2023-02-28T12:12:15;5.00;99.90
2002;DHT22;1003;48.002;7.788;2023-02-28T12:18:13;5.10;99.90
2002;DHT22;1003;48.002;7.788;2023-02-28T12:21:04;5.20;99.90
2002;DHT22;1003;48.002;7.788;2023-02-28T12:23:50;5.40;99.90
2002;DHT22;1003;48.002;7.788;2023-02-28T12:26:34;5.10;99.90
2002;DHT22;1003;48.002;7.788;2023-02-28T12:29:12;5.10;99.90
2002;DHT22;1003;48.002;7.788;2023-02-28T12:31:48;5.30;99.90
2002;DHT22;1003;48.002;7.788;2023-02-28T12:34:22;5.30;99.90
2002;DHT22;1003;48.002;7.788;2023-02-28T12:36:56;5.30;99.90
2002;DHT22;1003;48.002;7.788;2023-02-28T12:39:30;5.00;99.90
2002;DHT22;1003;48.002;7.788;2023-02-28T12:42:05;4.90;99.90
2002;DHT22;1003;48.002;7.788;2023-02-28T12:44:44;5.10;99.90
2002;DHT22;1003;48.002;7.788;2023-02-28T12:47:16;5.10;99.90
2002;DHT22;1003;48.002;7.788;2023-02-28T12:49:49;5.30;99.90
2002;DHT22;1003;48.002;7.788;2023-02-28T12:52:25;5.10;99.90
2002;DHT22;1003;48.002;7.788;2023-02-28T12:55:06;4.90;99.90
2002;DHT22;1003;48.002;7.788;2023-02-28T12:57:48;5.40;99.90
2002;DHT22;1003;48.002;7.788;2023-02-28T13:00:24;5.50;99.90
2002;DHT22;1003;48.002;7.788;2023-02-28T13:03:24;5.80;99.90
2002;DHT22;1003;48.002;7.788;2023-02-28T13:06:33;5.70;99.90
2002;DHT22;1003;48.002;7.788;2023-02-28T13:09:19;5.50;99.90
2002;DHT22;1003;48.002;7.788;2023-02-28T13:11:48;5.60;99.90
2002;DHT22;1003;48.002;7.788;2023-02-28T13:14:22;5.10;99.90
2002;DHT22;1003;48.002;7.788;2023-02-28T13:16:57;4.90;99.90
2002;DHT22;1003;48.002;7.788;2023-02-28T13:19:30;5.00;99.90
2002;DHT22;1003;48.002;7.788;2023-02-28T13:22:01;5.00;99.90
2002;DHT22;1003;48.002;7.788;2023-02-28T13:24:52;4.70;99.90
2002;DHT22;1003;48.002;7.788;2023-02-28T13:27:35;5.10;99.90
2002;DHT22;1003;48.002;7.788;2023-02-28T13:33:29;4.80;99.90
2002;DHT22;1003;48.002;7.788;2023-02-28T13:36:22;5.10;99.90
2002;DHT22;1003;48.002;7.788;2023-02-28T13:38:54;5.30;99.90
2002;DHT22;1003;48.002;7.788;2023-02-28T13:41:44;5.30;99.90
2002;DHT22;1003;48.002;7.788;2023-02-28T13:44:14;5.20;99.90
2002;DHT22;1003;48.002;7.788;2023-02-28T13:47:25;4.90;99.90
2002;DHT22;1003;48.002;7.788;2023-02-28T13:50:14;5.10;99.90
2002;DHT22;1003;48.002;7.788;2023-02-28T13:52:51;4.90;99.90
2002;DHT22;1003;48.002;7.788;2023-02-28T13:55:31;5.30;99.90
2002;DHT22;1003;48.002;7.788;2023-02-28T13:58:12;5.30;99.90
2002;DHT22;1003;48.002;7.788;2023-02-28T14:01:17;5.30;99.90
2002;DHT22;1003;48.002;7.788;2023-02-28T14:07:07;5.40;99.90
2002;DHT22;1003;48.002;7.788;2023-02-28T14:09:46;5.20;99.90
2002;DHT22;1003;48.002;7.788;2023-02-28T14:12:55;5.00;99.90
2002;DHT22;1003;48.002;7.788;2023-02-28T14:15:41;5.40;99.90
2002;DHT22;1003;48.002;7.788;2023-02-28T14:18:31;5.00;99.90
2002;DHT22;1003;48.002;7.788;2023-02-28T14:21:09;5.10;99.90
2002;DHT22;1003;48.002;7.788;2023-02-28T14:23:54;5.20;99.90
2002;DHT22;1003;48.002;7.788;2023-02-28T14:27:15;5.00;99.90
2002;DHT22;1003;48.002;7.788;2023-02-28T14:30:48;4.80;99.90
2002;DHT22;1003;48.002;7.788;2023-02-28T14:33:26;5.10;99.90
2002;DHT22;1003;48.002;7.788;2023-02-28T14:36:07;5.20;99.90
2002;DHT22;1003;48.002;7.788;2023-02-28T14:38:43;5.00;99.90
2002;DHT22;1003;48.002;7.788;2023-02-28T14:41:18;4.90;99.90
2002;DHT22;1003;48.002;7.788;2023-02-28T14:43:51;5.00;99.90
2002;DHT22;1003;48.002;7.788;2023-02-28T14:46:26;5.00;99.90
2002;DHT22;1003;48.002;7.788;2023-02-28T14:48:59;5.00;99.90
2002;DHT22;1003;48.002;7.788;2023-02-28T14:51:27;5.00;99.90
2002;DHT22;1003;48.002;7.788;2023-02-28T14:53:57;4.90;99.90
2002;DHT22;1003;48.002;7.788;2023-02-28T14:56:29;5.00;99.90
2002;DHT22;1003;48.002;7.788;2023-02-28T14:59:00;4.80;99.90
2002;DHT22;1003;48.002;7.788;2023-02-28T15:01:29;4.80;99.90
2002;DHT22;1003;48.002;7.788;2023-02-28T15:03:59;4.70;99.90
2002;DHT22;1003;48.002;7.788;2023-02-28T15:06:29;4.90;99.90
2002;DHT22;1003;48.002;7.788;2023-02-28T15:09:14;4.90;99.90
2002;DHT22;1003;48.002;7.788;2023-02-28T15:11:46;4.90;99.90
2002;DHT22;1003;48.002;7.788;2023-02-28T15:14:18;4.50;99.90
2002;DHT22;1003;48.002;7.788;2023-02-28T15:16:52;4.70;99.90
2002;DHT22;1003;48.002;7.788;2023-02-28T15:19:26;4.70;99.90
2002;DHT22;1003;48.002;7.788;2023-02-28T15:22:00;4.50;99.90
2002;DHT22;1003;48.002;7.788;2023-02-28T15:24:36;4.50;99.90
2002;DHT22;1003;48.002;7.788;2023-02-28T15:27:09;4.30;99.90
2002;DHT22;1003;48.002;7.788;2023-02-28T15:29:44;4.30;99.90
2002;DHT22;1003;48.002;7.788;2023-02-28T15:32:27;4.10;99.90
2002;DHT22;1003;48.002;7.788;2023-02-28T15:34:57;4.10;99.90
2002;DHT22;1003;48.002;7.788;2023-02-28T15:37:27;4.00;99.90
2002;DHT22;1003;48.002;7.788;2023-02-28T15:39:58;4.00;99.90
2002;DHT22;1003;48.002;7.788;2023-02-28T15:42:31;4.10;99.90
2002;DHT22;1003;48.002;7.788;2023-02-28T15:44:58;4.10;99.90
2002;DHT22;1003;48.002;7.788;2023-02-28T15:47:29;4.00;99.90
2002;DHT22;1003;48.002;7.788;2023-02-28T15:49:59;3.90;99.90
2002;DHT22;1003;48.002;7.788;2023-02-28T15:52:32;3.70;99.90
2002;DHT22;1003;48.002;7.788;2023-02-28T15:55:11;3.50;99.90
2002;DHT22;1003;48.002;7.788;2023-02-28T15:57:46;3.60;99.90
2002;DHT22;1003;48.002;7.788;2023-02-28T16:00:23;3.50;99.90
2002;DHT22;1003;48.002;7.788;2023-02-28T16:02:54;3.40;99.90
2002;DHT22;1003;48.002;7.788;2023-02-28T16:05:24;3.30;99.90
2002;DHT22;1003;48.002;7.788;2023-02-28T16:07:58;3.30;99.90
2002;DHT22;1003;48.002;7.788;2023-02-28T16:10:28;3.40;99.90
2002;DHT22;1003;48.002;7.788;2023-02-28T16:12:56;3.40;99.90
2002;DHT22;1003;48.002;7.788;2023-02-28T16:15:26;3.30;99.90
2002;DHT22;1003;48.002;7.788;2023-02-28T16:17:57;3.30;99.90
2002;DHT22;1003;48.002;7.788;2023-02-28T16:20:27;3.30;99.90
2002;DHT22;1003;48.002;7.788;2023-02-28T16:22:55;3.20;99.90
2002;DHT22;1003;48.002;7.788;2023-02-28T16:25:33;3.20;99.90
2002;DHT22;1003;48.002;7.788;2023-02-28T16:28:02;3.20;99.90
2002;DHT22;1003;48.002;7.788;2023-02-28T16:30:29;3.20;99.90
2002;DHT22;1003;48.002;7.788;2023-02-28T16:32:59;3.20;99.90
2002;DHT22;1003;48.002;7.788;2023-02-28T16:35:26;3.20;99.90
2002;DHT22;1003;48.002;7.788;2023-02-28T16:37:53;3.20;99.90
2002;DHT22;1003;48.002;7.788;2023-02-28T16:40:22;3.10;99.90
2002;DHT22;1003;48.002;7.788;2023-02-28T16:42:52;3.10;99.90
2002;DHT22;1003;48.002;7.788;2023-02-28T16:45:23;3.00;99.90
2002;DHT22;1003;48.002;7.788;2023-02-28T16:47:53;3.00;99.90
2002;DHT22;1003;48.002;7.788;2023-02-28T16:50:24;2.90;99.90
2002;DHT22;1003;48.002;7.788;2023-02-28T16:52:52;2.80;99.90
2002;DHT22;1003;48.002;7.788;2023-02-28T16:55:20;2.80;99.90
2002;DHT22;1003;48.002;7.788;2023-02-28T16:57:51;2.80;99.90
2002;DHT22;1003;48.002;7.788;2023-02-28T17:00:20;2.70;99.90
2002;DHT22;1003;48.002;7.788;2023-02-28T17:02:48;2.40;99.90
2002;DHT22;1003;48.002;7.788;2023-02-28T17:05:16;2.30;99.90
2002;DHT22;1003;48.002;7.788;2023-02-28T17:07:46;2.10;99.90
2002;DHT22;1003;48.002;7.788;2023-02-28T17:10:22;2.00;99.90